Terminal Aerodrome Forecast
Issued by NWS

Home | Current Version | Previous Version | Text Only | Print | Product List | Glossary On
Versions: 1 2 3 4 5 6 7 8 9 10 11 12 13 14 15 16 17 18 19 20 21 22 23 24 25 26 27 28 29 30 31 32 33 34
691
FTUS45 KTFX 220538
TAFHLN
TAF
KHLN 220538Z 2206/2306 VRB02KT 6SM BR SCT150
     FM221200 VRB02KT 4SM BR SCT150
      TEMPO 2213/2216 1/2SM FZFG SCT003
     FM221700 VRB02KT 6SM BR SCT080 BKN150=

USA.gov is the U.S. government's official web portal to all federal, state and local government web resources and services.